sensor_id;sensor_type;location;lat;lon;timestamp;temperature;humidity
1391;DHT22;690;51.454;7.194;2022-10-16T00:01:06;16.10;1.00
1391;DHT22;690;51.454;7.194;2022-10-16T00:03:33;16.10;1.00
1391;DHT22;690;51.454;7.194;2022-10-16T00:06:01;16.10;1.00
1391;DHT22;690;51.454;7.194;2022-10-16T00:08:28;16.10;1.00
1391;DHT22;690;51.454;7.194;2022-10-16T00:10:59;16.10;1.00
1391;DHT22;690;51.454;7.194;2022-10-16T00:13:26;16.00;1.00
1391;DHT22;690;51.454;7.194;2022-10-16T00:15:56;16.00;1.00
1391;DHT22;690;51.454;7.194;2022-10-16T00:18:23;16.00;1.00
1391;DHT22;690;51.454;7.194;2022-10-16T00:20:50;16.00;1.00
1391;DHT22;690;51.454;7.194;2022-10-16T00:23:17;16.00;1.00
1391;DHT22;690;51.454;7.194;2022-10-16T00:25:44;16.00;1.00
1391;DHT22;690;51.454;7.194;2022-10-16T00:28:11;16.00;1.00
1391;DHT22;690;51.454;7.194;2022-10-16T00:30:38;16.00;1.00
1391;DHT22;690;51.454;7.194;2022-10-16T00:33:06;16.00;1.00
1391;DHT22;690;51.454;7.194;2022-10-16T00:35:33;16.00;1.00
1391;DHT22;690;51.454;7.194;2022-10-16T00:38:00;16.00;1.00
1391;DHT22;690;51.454;7.194;2022-10-16T00:40:27;16.00;1.00
1391;DHT22;690;51.454;7.194;2022-10-16T00:42:54;16.00;1.00
1391;DHT22;690;51.454;7.194;2022-10-16T00:45:21;16.00;1.00
1391;DHT22;690;51.454;7.194;2022-10-16T00:47:49;16.00;1.00
1391;DHT22;690;51.454;7.194;2022-10-16T00:50:22;16.00;1.00
1391;DHT22;690;51.454;7.194;2022-10-16T00:52:51;16.00;1.00
1391;DHT22;690;51.454;7.194;2022-10-16T00:55:19;16.00;1.00
1391;DHT22;690;51.454;7.194;2022-10-16T00:57:47;16.00;1.00
1391;DHT22;690;51.454;7.194;2022-10-16T01:00:17;16.00;1.00
1391;DHT22;690;51.454;7.194;2022-10-16T01:02:44;16.00;1.00
1391;DHT22;690;51.454;7.194;2022-10-16T01:05:11;16.00;1.00
1391;DHT22;690;51.454;7.194;2022-10-16T01:07:45;16.00;1.00
1391;DHT22;690;51.454;7.194;2022-10-16T01:10:27;16.00;1.00
1391;DHT22;690;51.454;7.194;2022-10-16T01:13:01;16.00;1.00
1391;DHT22;690;51.454;7.194;2022-10-16T01:15:32;16.00;1.00
1391;DHT22;690;51.454;7.194;2022-10-16T01:18:03;16.00;1.00
1391;DHT22;690;51.454;7.194;2022-10-16T01:20:33;15.90;1.00
1391;DHT22;690;51.454;7.194;2022-10-16T01:23:19;16.00;1.00
1391;DHT22;690;51.454;7.194;2022-10-16T01:26:04;15.90;1.00
1391;DHT22;690;51.454;7.194;2022-10-16T01:28:40;15.90;1.00
1391;DHT22;690;51.454;7.194;2022-10-16T01:31:11;15.90;1.00
1391;DHT22;690;51.454;7.194;2022-10-16T01:33:43;15.90;1.00
1391;DHT22;690;51.454;7.194;2022-10-16T01:36:14;15.90;1.00
1391;DHT22;690;51.454;7.194;2022-10-16T01:38:43;15.90;99.90
1391;DHT22;690;51.454;7.194;2022-10-16T01:41:14;15.90;99.90
1391;DHT22;690;51.454;7.194;2022-10-16T01:43:46;15.80;99.90
1391;DHT22;690;51.454;7.194;2022-10-16T01:46:17;15.80;99.90
1391;DHT22;690;51.454;7.194;2022-10-16T01:48:46;15.80;99.90
1391;DHT22;690;51.454;7.194;2022-10-16T01:51:15;15.80;99.90
1391;DHT22;690;51.454;7.194;2022-10-16T01:53:48;15.80;99.90
1391;DHT22;690;51.454;7.194;2022-10-16T01:56:17;15.80;99.90
1391;DHT22;690;51.454;7.194;2022-10-16T01:58:50;15.80;99.90
1391;DHT22;690;51.454;7.194;2022-10-16T02:01:21;15.80;99.90
1391;DHT22;690;51.454;7.194;2022-10-16T02:03:52;15.70;99.90
1391;DHT22;690;51.454;7.194;2022-10-16T02:06:20;15.70;99.90
1391;DHT22;690;51.454;7.194;2022-10-16T02:08:48;15.70;99.90
1391;DHT22;690;51.454;7.194;2022-10-16T02:11:15;15.70;99.90
1391;DHT22;690;51.454;7.194;2022-10-16T02:13:44;15.70;99.90
1391;DHT22;690;51.454;7.194;2022-10-16T02:16:13;15.70;99.90
1391;DHT22;690;51.454;7.194;2022-10-16T02:18:41;15.60;99.90
1391;DHT22;690;51.454;7.194;2022-10-16T02:21:13;15.60;99.90
1391;DHT22;690;51.454;7.194;2022-10-16T02:23:47;15.70;1.00
1391;DHT22;690;51.454;7.194;2022-10-16T02:26:22;15.70;1.00
1391;DHT22;690;51.454;7.194;2022-10-16T02:28:56;15.70;1.00
1391;DHT22;690;51.454;7.194;2022-10-16T02:31:31;15.70;1.00
1391;DHT22;690;51.454;7.194;2022-10-16T02:34:00;15.70;1.00
1391;DHT22;690;51.454;7.194;2022-10-16T02:36:28;15.80;1.00
1391;DHT22;690;51.454;7.194;2022-10-16T02:38:56;15.80;1.00
1391;DHT22;690;51.454;7.194;2022-10-16T02:41:23;15.80;1.00
1391;DHT22;690;51.454;7.194;2022-10-16T02:43:50;15.80;99.90
1391;DHT22;690;51.454;7.194;2022-10-16T02:46:17;15.80;99.90
1391;DHT22;690;51.454;7.194;2022-10-16T02:48:46;15.90;99.90
1391;DHT22;690;51.454;7.194;2022-10-16T02:51:13;15.90;99.90
1391;DHT22;690;51.454;7.194;2022-10-16T02:53:40;15.90;99.90
1391;DHT22;690;51.454;7.194;2022-10-16T02:56:07;15.90;99.90
1391;DHT22;690;51.454;7.194;2022-10-16T02:58:34;15.90;99.90
1391;DHT22;690;51.454;7.194;2022-10-16T03:01:00;15.90;99.90
1391;DHT22;690;51.454;7.194;2022-10-16T03:03:28;15.90;99.90
1391;DHT22;690;51.454;7.194;2022-10-16T03:05:56;15.90;99.90
1391;DHT22;690;51.454;7.194;2022-10-16T03:08:24;16.00;99.90
1391;DHT22;690;51.454;7.194;2022-10-16T03:10:51;16.00;99.90
1391;DHT22;690;51.454;7.194;2022-10-16T03:13:18;16.00;99.90
1391;DHT22;690;51.454;7.194;2022-10-16T03:15:46;16.00;99.90
1391;DHT22;690;51.454;7.194;2022-10-16T03:18:14;16.00;99.90
1391;DHT22;690;51.454;7.194;2022-10-16T03:20:41;16.00;99.90
1391;DHT22;690;51.454;7.194;2022-10-16T03:23:10;16.00;99.90
1391;DHT22;690;51.454;7.194;2022-10-16T03:25:37;16.00;99.90
1391;DHT22;690;51.454;7.194;2022-10-16T03:28:04;16.00;99.90
1391;DHT22;690;51.454;7.194;2022-10-16T03:30:30;16.00;99.90
1391;DHT22;690;51.454;7.194;2022-10-16T03:32:57;16.00;99.90
1391;DHT22;690;51.454;7.194;2022-10-16T03:35:24;16.00;99.90
1391;DHT22;690;51.454;7.194;2022-10-16T03:37:51;16.00;99.90
1391;DHT22;690;51.454;7.194;2022-10-16T03:40:20;16.10;99.90
1391;DHT22;690;51.454;7.194;2022-10-16T03:42:46;16.00;99.90
1391;DHT22;690;51.454;7.194;2022-10-16T03:45:13;16.00;99.90
1391;DHT22;690;51.454;7.194;2022-10-16T03:47:40;16.00;99.90
1391;DHT22;690;51.454;7.194;2022-10-16T03:50:08;16.00;99.90
1391;DHT22;690;51.454;7.194;2022-10-16T03:52:35;16.00;99.90
1391;DHT22;690;51.454;7.194;2022-10-16T03:55:02;16.00;51.80
1391;DHT22;690;51.454;7.194;2022-10-16T03:57:30;15.90;59.10
1391;DHT22;690;51.454;7.194;2022-10-16T03:59:57;15.90;19.60
1391;DHT22;690;51.454;7.194;2022-10-16T04:02:24;15.90;1.00
1391;DHT22;690;51.454;7.194;2022-10-16T04:04:50;15.90;1.00
1391;DHT22;690;51.454;7.194;2022-10-16T04:07:18;15.90;1.00
1391;DHT22;690;51.454;7.194;2022-10-16T04:09:45;15.90;1.00
1391;DHT22;690;51.454;7.194;2022-10-16T04:12:12;15.90;1.00
1391;DHT22;690;51.454;7.194;2022-10-16T04:14:40;15.90;1.00
1391;DHT22;690;51.454;7.194;2022-10-16T04:17:06;15.90;1.00
1391;DHT22;690;51.454;7.194;2022-10-16T04:19:33;15.90;1.00
1391;DHT22;690;51.454;7.194;2022-10-16T04:22:00;15.90;1.00
1391;DHT22;690;51.454;7.194;2022-10-16T04:24:27;15.90;1.00
1391;DHT22;690;51.454;7.194;2022-10-16T04:26:54;15.90;1.00
1391;DHT22;690;51.454;7.194;2022-10-16T04:29:21;15.80;1.00
1391;DHT22;690;51.454;7.194;2022-10-16T04:31:49;15.80;1.00
1391;DHT22;690;51.454;7.194;2022-10-16T04:34:16;15.80;1.00
1391;DHT22;690;51.454;7.194;2022-10-16T04:36:43;15.80;1.00
1391;DHT22;690;51.454;7.194;2022-10-16T04:39:10;15.80;1.00
1391;DHT22;690;51.454;7.194;2022-10-16T04:41:37;15.80;99.90
1391;DHT22;690;51.454;7.194;2022-10-16T04:44:04;15.80;99.90
1391;DHT22;690;51.454;7.194;2022-10-16T04:46:31;15.80;99.90
1391;DHT22;690;51.454;7.194;2022-10-16T04:48:59;15.80;99.90
1391;DHT22;690;51.454;7.194;2022-10-16T04:51:26;15.80;99.90
1391;DHT22;690;51.454;7.194;2022-10-16T04:53:53;15.80;99.90
1391;DHT22;690;51.454;7.194;2022-10-16T04:56:20;15.80;99.90
1391;DHT22;690;51.454;7.194;2022-10-16T04:58:48;15.80;99.90
1391;DHT22;690;51.454;7.194;2022-10-16T05:01:15;15.70;99.90
1391;DHT22;690;51.454;7.194;2022-10-16T05:03:41;15.70;99.90
1391;DHT22;690;51.454;7.194;2022-10-16T05:06:10;15.70;99.90
1391;DHT22;690;51.454;7.194;2022-10-16T05:08:36;15.70;99.90
1391;DHT22;690;51.454;7.194;2022-10-16T05:11:04;15.70;99.90
1391;DHT22;690;51.454;7.194;2022-10-16T05:13:30;15.70;99.90
1391;DHT22;690;51.454;7.194;2022-10-16T05:15:57;15.80;99.90
1391;DHT22;690;51.454;7.194;2022-10-16T05:18:24;15.70;93.40
1391;DHT22;690;51.454;7.194;2022-10-16T05:20:51;15.70;95.00
1391;DHT22;690;51.454;7.194;2022-10-16T05:23:19;15.70;96.30
1391;DHT22;690;51.454;7.194;2022-10-16T05:25:53;15.80;99.90
1391;DHT22;690;51.454;7.194;2022-10-16T05:28:21;15.80;99.90
1391;DHT22;690;51.454;7.194;2022-10-16T05:30:48;15.80;99.90
1391;DHT22;690;51.454;7.194;2022-10-16T05:33:14;15.80;99.90
1391;DHT22;690;51.454;7.194;2022-10-16T05:35:41;15.80;99.90
1391;DHT22;690;51.454;7.194;2022-10-16T05:38:09;15.80;83.00
1391;DHT22;690;51.454;7.194;2022-10-16T05:40:37;15.80;29.20
1391;DHT22;690;51.454;7.194;2022-10-16T05:43:04;15.80;1.00
1391;DHT22;690;51.454;7.194;2022-10-16T05:45:31;15.80;14.30
1391;DHT22;690;51.454;7.194;2022-10-16T05:47:59;15.80;1.00
1391;DHT22;690;51.454;7.194;2022-10-16T05:50:27;15.80;29.70
1391;DHT22;690;51.454;7.194;2022-10-16T05:52:53;15.80;75.20
1391;DHT22;690;51.454;7.194;2022-10-16T05:55:20;15.80;56.40
1391;DHT22;690;51.454;7.194;2022-10-16T05:57:49;15.80;54.10
1391;DHT22;690;51.454;7.194;2022-10-16T06:00:16;15.80;3.40
1391;DHT22;690;51.454;7.194;2022-10-16T06:02:43;15.80;1.00
1391;DHT22;690;51.454;7.194;2022-10-16T06:05:09;15.80;1.00
1391;DHT22;690;51.454;7.194;2022-10-16T06:07:36;15.80;1.00
1391;DHT22;690;51.454;7.194;2022-10-16T06:10:04;15.80;1.00
1391;DHT22;690;51.454;7.194;2022-10-16T06:12:31;15.80;1.00
1391;DHT22;690;51.454;7.194;2022-10-16T06:14:59;15.80;1.00
1391;DHT22;690;51.454;7.194;2022-10-16T06:17:26;15.80;1.00
1391;DHT22;690;51.454;7.194;2022-10-16T06:19:53;15.70;1.00
1391;DHT22;690;51.454;7.194;2022-10-16T06:22:20;15.80;1.00
1391;DHT22;690;51.454;7.194;2022-10-16T06:24:47;15.80;1.00
1391;DHT22;690;51.454;7.194;2022-10-16T06:27:15;15.80;1.00
1391;DHT22;690;51.454;7.194;2022-10-16T06:29:42;15.80;1.00
1391;DHT22;690;51.454;7.194;2022-10-16T06:32:11;15.80;14.40
1391;DHT22;690;51.454;7.194;2022-10-16T06:34:38;15.80;33.40
1391;DHT22;690;51.454;7.194;2022-10-16T06:37:06;15.80;99.90
1391;DHT22;690;51.454;7.194;2022-10-16T06:39:33;15.80;99.90
1391;DHT22;690;51.454;7.194;2022-10-16T06:42:00;15.80;84.60
1391;DHT22;690;51.454;7.194;2022-10-16T06:44:27;15.80;99.20
1391;DHT22;690;51.454;7.194;2022-10-16T06:46:53;15.80;99.90
1391;DHT22;690;51.454;7.194;2022-10-16T06:49:22;15.80;99.90
1391;DHT22;690;51.454;7.194;2022-10-16T06:51:49;15.90;99.90
1391;DHT22;690;51.454;7.194;2022-10-16T06:54:16;15.90;99.90
1391;DHT22;690;51.454;7.194;2022-10-16T06:56:43;15.90;99.90
1391;DHT22;690;51.454;7.194;2022-10-16T06:59:11;15.90;99.90
1391;DHT22;690;51.454;7.194;2022-10-16T07:01:37;16.00;99.90
1391;DHT22;690;51.454;7.194;2022-10-16T07:04:04;15.90;99.90
1391;DHT22;690;51.454;7.194;2022-10-16T07:06:33;15.90;99.90
1391;DHT22;690;51.454;7.194;2022-10-16T07:09:03;15.90;99.90
1391;DHT22;690;51.454;7.194;2022-10-16T07:11:31;15.90;99.90
1391;DHT22;690;51.454;7.194;2022-10-16T07:13:58;15.90;99.90
1391;DHT22;690;51.454;7.194;2022-10-16T07:16:27;16.00;99.90
1391;DHT22;690;51.454;7.194;2022-10-16T07:18:54;16.00;99.90
1391;DHT22;690;51.454;7.194;2022-10-16T07:21:24;16.00;99.90
1391;DHT22;690;51.454;7.194;2022-10-16T07:23:54;16.00;99.90
1391;DHT22;690;51.454;7.194;2022-10-16T07:26:21;16.00;99.90
1391;DHT22;690;51.454;7.194;2022-10-16T07:28:49;16.00;99.90
1391;DHT22;690;51.454;7.194;2022-10-16T07:31:18;16.00;99.90
1391;DHT22;690;51.454;7.194;2022-10-16T07:33:47;16.00;99.90
1391;DHT22;690;51.454;7.194;2022-10-16T07:36:15;16.00;99.90
1391;DHT22;690;51.454;7.194;2022-10-16T07:38:42;16.10;99.90
1391;DHT22;690;51.454;7.194;2022-10-16T07:41:13;16.10;99.90
1391;DHT22;690;51.454;7.194;2022-10-16T07:43:44;16.10;99.90
1391;DHT22;690;51.454;7.194;2022-10-16T07:46:11;16.10;99.90
1391;DHT22;690;51.454;7.194;2022-10-16T07:48:38;16.20;99.90
1391;DHT22;690;51.454;7.194;2022-10-16T07:51:06;16.20;1.00
1391;DHT22;690;51.454;7.194;2022-10-16T07:53:33;16.30;1.00
1391;DHT22;690;51.454;7.194;2022-10-16T07:56:02;16.40;1.00
1391;DHT22;690;51.454;7.194;2022-10-16T07:58:31;16.40;99.90
1391;DHT22;690;51.454;7.194;2022-10-16T08:00:59;16.50;99.90
1391;DHT22;690;51.454;7.194;2022-10-16T08:03:29;16.60;99.90
1391;DHT22;690;51.454;7.194;2022-10-16T08:05:57;16.60;99.90
1391;DHT22;690;51.454;7.194;2022-10-16T08:08:23;16.70;99.90
1391;DHT22;690;51.454;7.194;2022-10-16T08:10:50;16.80;93.10
1391;DHT22;690;51.454;7.194;2022-10-16T08:13:17;16.80;39.80
1391;DHT22;690;51.454;7.194;2022-10-16T08:15:46;16.90;1.00
1391;DHT22;690;51.454;7.194;2022-10-16T08:18:14;16.90;1.00
1391;DHT22;690;51.454;7.194;2022-10-16T08:20:42;17.00;1.00
1391;DHT22;690;51.454;7.194;2022-10-16T08:23:10;17.00;1.00
1391;DHT22;690;51.454;7.194;2022-10-16T08:25:38;17.10;99.90
1391;DHT22;690;51.454;7.194;2022-10-16T08:28:05;17.20;99.90
1391;DHT22;690;51.454;7.194;2022-10-16T08:30:32;17.20;1.00
1391;DHT22;690;51.454;7.194;2022-10-16T08:33:01;17.30;99.90
1391;DHT22;690;51.454;7.194;2022-10-16T08:35:28;17.30;99.90
1391;DHT22;690;51.454;7.194;2022-10-16T08:37:55;17.30;1.00
1391;DHT22;690;51.454;7.194;2022-10-16T08:40:24;17.40;1.00
1391;DHT22;690;51.454;7.194;2022-10-16T08:43:12;17.40;1.00
1391;DHT22;690;51.454;7.194;2022-10-16T08:45:57;17.50;99.90
1391;DHT22;690;51.454;7.194;2022-10-16T08:48:38;17.60;99.90
1391;DHT22;690;51.454;7.194;2022-10-16T08:51:08;17.60;1.00
1391;DHT22;690;51.454;7.194;2022-10-16T08:53:41;17.70;1.00
1391;DHT22;690;51.454;7.194;2022-10-16T08:56:09;17.70;1.00
1391;DHT22;690;51.454;7.194;2022-10-16T08:58:36;17.70;1.00
1391;DHT22;690;51.454;7.194;2022-10-16T09:01:04;17.80;1.00
1391;DHT22;690;51.454;7.194;2022-10-16T09:03:50;17.80;99.90
1391;DHT22;690;51.454;7.194;2022-10-16T09:06:29;17.90;99.90
1391;DHT22;690;51.454;7.194;2022-10-16T09:09:08;17.90;99.90
1391;DHT22;690;51.454;7.194;2022-10-16T09:11:44;18.00;99.90
1391;DHT22;690;51.454;7.194;2022-10-16T09:14:31;18.10;99.90
1391;DHT22;690;51.454;7.194;2022-10-16T09:17:12;18.20;99.90
1391;DHT22;690;51.454;7.194;2022-10-16T09:19:49;18.20;99.90
1391;DHT22;690;51.454;7.194;2022-10-16T09:22:18;18.30;99.90
1391;DHT22;690;51.454;7.194;2022-10-16T09:24:48;18.30;99.90
1391;DHT22;690;51.454;7.194;2022-10-16T09:27:15;18.50;99.90
1391;DHT22;690;51.454;7.194;2022-10-16T09:30:01;18.50;97.00
1391;DHT22;690;51.454;7.194;2022-10-16T09:32:50;18.50;41.40
1391;DHT22;690;51.454;7.194;2022-10-16T09:35:40;18.60;7.50
1391;DHT22;690;51.454;7.194;2022-10-16T09:38:30;18.70;1.00
1391;DHT22;690;51.454;7.194;2022-10-16T09:41:20;18.70;1.00
1391;DHT22;690;51.454;7.194;2022-10-16T09:44:18;18.80;1.00
1391;DHT22;690;51.454;7.194;2022-10-16T09:47:04;18.80;1.00
1391;DHT22;690;51.454;7.194;2022-10-16T09:49:31;18.80;1.00
1391;DHT22;690;51.454;7.194;2022-10-16T09:52:19;18.90;1.00
1391;DHT22;690;51.454;7.194;2022-10-16T09:55:14;18.90;1.00
1391;DHT22;690;51.454;7.194;2022-10-16T09:57:49;19.00;1.00
1391;DHT22;690;51.454;7.194;2022-10-16T10:00:34;19.10;1.00
1391;DHT22;690;51.454;7.194;2022-10-16T10:03:10;19.10;1.00
1391;DHT22;690;51.454;7.194;2022-10-16T10:05:39;19.10;1.00
1391;DHT22;690;51.454;7.194;2022-10-16T10:08:14;19.20;1.00
1391;DHT22;690;51.454;7.194;2022-10-16T10:10:48;19.20;1.00
1391;DHT22;690;51.454;7.194;2022-10-16T10:13:18;19.30;1.00
1391;DHT22;690;51.454;7.194;2022-10-16T10:15:45;19.30;1.00
1391;DHT22;690;51.454;7.194;2022-10-16T10:18:17;19.30;1.00
1391;DHT22;690;51.454;7.194;2022-10-16T10:20:45;19.40;1.00
1391;DHT22;690;51.454;7.194;2022-10-16T10:23:26;19.40;1.00
1391;DHT22;690;51.454;7.194;2022-10-16T10:25:57;19.50;1.00
1391;DHT22;690;51.454;7.194;2022-10-16T10:28:47;19.60;1.00
1391;DHT22;690;51.454;7.194;2022-10-16T10:31:21;19.60;1.00
1391;DHT22;690;51.454;7.194;2022-10-16T10:33:55;19.70;1.00
1391;DHT22;690;51.454;7.194;2022-10-16T10:36:30;19.80;1.00
1391;DHT22;690;51.454;7.194;2022-10-16T10:39:02;19.80;1.00
1391;DHT22;690;51.454;7.194;2022-10-16T10:42:09;19.80;1.00
1391;DHT22;690;51.454;7.194;2022-10-16T10:44:57;19.90;1.00
1391;DHT22;690;51.454;7.194;2022-10-16T10:47:41;20.00;1.00
1391;DHT22;690;51.454;7.194;2022-10-16T10:50:19;20.10;1.00
1391;DHT22;690;51.454;7.194;2022-10-16T10:52:57;20.10;1.00
1391;DHT22;690;51.454;7.194;2022-10-16T10:55:33;20.20;1.00
1391;DHT22;690;51.454;7.194;2022-10-16T10:58:24;20.40;1.00
1391;DHT22;690;51.454;7.194;2022-10-16T11:01:00;20.50;1.00
1391;DHT22;690;51.454;7.194;2022-10-16T11:03:56;20.70;1.00
1391;DHT22;690;51.454;7.194;2022-10-16T11:06:28;20.70;1.00
1391;DHT22;690;51.454;7.194;2022-10-16T11:09:00;20.70;1.00
1391;DHT22;690;51.454;7.194;2022-10-16T11:11:34;20.70;1.00
1391;DHT22;690;51.454;7.194;2022-10-16T11:14:06;20.70;1.00
1391;DHT22;690;51.454;7.194;2022-10-16T11:16:38;20.70;1.00
1391;DHT22;690;51.454;7.194;2022-10-16T11:19:12;20.70;1.00
1391;DHT22;690;51.454;7.194;2022-10-16T11:21:49;20.80;1.00
1391;DHT22;690;51.454;7.194;2022-10-16T11:24:21;20.90;1.00
1391;DHT22;690;51.454;7.194;2022-10-16T11:26:52;21.00;1.00
1391;DHT22;690;51.454;7.194;2022-10-16T11:29:26;21.10;1.00
1391;DHT22;690;51.454;7.194;2022-10-16T11:31:59;21.10;1.00
1391;DHT22;690;51.454;7.194;2022-10-16T11:34:31;21.20;1.00
1391;DHT22;690;51.454;7.194;2022-10-16T11:37:05;21.30;1.00
1391;DHT22;690;51.454;7.194;2022-10-16T11:39:34;21.40;1.00
1391;DHT22;690;51.454;7.194;2022-10-16T11:42:08;21.40;1.00
1391;DHT22;690;51.454;7.194;2022-10-16T11:44:45;21.40;1.00
1391;DHT22;690;51.454;7.194;2022-10-16T11:47:33;21.40;1.00
1391;DHT22;690;51.454;7.194;2022-10-16T11:50:03;21.40;1.00
1391;DHT22;690;51.454;7.194;2022-10-16T11:52:36;21.40;1.00
1391;DHT22;690;51.454;7.194;2022-10-16T11:55:09;21.40;1.00
1391;DHT22;690;51.454;7.194;2022-10-16T11:57:46;21.30;1.00
1391;DHT22;690;51.454;7.194;2022-10-16T12:00:21;21.40;99.90
1391;DHT22;690;51.454;7.194;2022-10-16T12:02:57;21.40;99.90
1391;DHT22;690;51.454;7.194;2022-10-16T12:05:35;21.30;99.90
1391;DHT22;690;51.454;7.194;2022-10-16T12:08:09;21.30;99.90
1391;DHT22;690;51.454;7.194;2022-10-16T12:10:38;21.30;99.90
1391;DHT22;690;51.454;7.194;2022-10-16T12:13:32;21.40;99.90
1391;DHT22;690;51.454;7.194;2022-10-16T12:16:21;21.40;99.90
1391;DHT22;690;51.454;7.194;2022-10-16T12:18:48;21.30;99.90
1391;DHT22;690;51.454;7.194;2022-10-16T12:21:17;21.30;99.90
1391;DHT22;690;51.454;7.194;2022-10-16T12:23:49;21.30;99.90
1391;DHT22;690;51.454;7.194;2022-10-16T12:26:24;21.30;99.90
1391;DHT22;690;51.454;7.194;2022-10-16T12:28:53;21.40;99.90
1391;DHT22;690;51.454;7.194;2022-10-16T12:31:21;21.40;99.90
1391;DHT22;690;51.454;7.194;2022-10-16T12:33:59;21.40;99.90
1391;DHT22;690;51.454;7.194;2022-10-16T12:36:29;21.40;99.90
1391;DHT22;690;51.454;7.194;2022-10-16T12:38:57;21.50;99.90
1391;DHT22;690;51.454;7.194;2022-10-16T12:41:26;21.50;99.90
1391;DHT22;690;51.454;7.194;2022-10-16T12:43:55;21.60;99.90
1391;DHT22;690;51.454;7.194;2022-10-16T12:46:37;21.70;99.90
1391;DHT22;690;51.454;7.194;2022-10-16T12:49:23;21.80;99.90
1391;DHT22;690;51.454;7.194;2022-10-16T12:51:55;21.90;99.90
1391;DHT22;690;51.454;7.194;2022-10-16T12:54:27;21.90;99.90
1391;DHT22;690;51.454;7.194;2022-10-16T12:57:04;22.00;99.90
1391;DHT22;690;51.454;7.194;2022-10-16T12:59:43;22.00;99.90
1391;DHT22;690;51.454;7.194;2022-10-16T13:02:46;22.00;99.90
1391;DHT22;690;51.454;7.194;2022-10-16T13:05:32;22.00;99.90
1391;DHT22;690;51.454;7.194;2022-10-16T13:08:12;22.00;99.90
1391;DHT22;690;51.454;7.194;2022-10-16T13:10:50;21.90;99.90
1391;DHT22;690;51.454;7.194;2022-10-16T13:13:32;21.90;99.90
1391;DHT22;690;51.454;7.194;2022-10-16T13:16:12;21.80;99.90
1391;DHT22;690;51.454;7.194;2022-10-16T13:18:52;21.80;99.90
1391;DHT22;690;51.454;7.194;2022-10-16T13:21:34;21.70;99.90
1391;DHT22;690;51.454;7.194;2022-10-16T13:24:10;21.80;99.90
1391;DHT22;690;51.454;7.194;2022-10-16T13:26:45;21.90;99.90
1391;DHT22;690;51.454;7.194;2022-10-16T13:29:14;21.90;99.90
1391;DHT22;690;51.454;7.194;2022-10-16T13:31:44;22.00;99.90
1391;DHT22;690;51.454;7.194;2022-10-16T13:34:15;22.00;99.90
1391;DHT22;690;51.454;7.194;2022-10-16T13:36:45;22.10;99.90
1391;DHT22;690;51.454;7.194;2022-10-16T13:39:14;22.20;99.90
1391;DHT22;690;51.454;7.194;2022-10-16T13:41:43;22.30;99.90
1391;DHT22;690;51.454;7.194;2022-10-16T13:44:15;22.40;99.90
1391;DHT22;690;51.454;7.194;2022-10-16T13:46:46;22.40;99.90
1391;DHT22;690;51.454;7.194;2022-10-16T13:49:15;22.40;99.90
1391;DHT22;690;51.454;7.194;2022-10-16T13:51:54;22.50;99.90
1391;DHT22;690;51.454;7.194;2022-10-16T13:54:21;22.50;99.90
1391;DHT22;690;51.454;7.194;2022-10-16T13:56:48;22.60;99.90
1391;DHT22;690;51.454;7.194;2022-10-16T13:59:25;22.60;99.90
1391;DHT22;690;51.454;7.194;2022-10-16T14:01:57;22.50;99.90
1391;DHT22;690;51.454;7.194;2022-10-16T14:04:32;22.50;99.90
1391;DHT22;690;51.454;7.194;2022-10-16T14:06:59;22.50;99.90
1391;DHT22;690;51.454;7.194;2022-10-16T14:09:28;22.50;99.90
1391;DHT22;690;51.454;7.194;2022-10-16T14:11:57;22.40;99.90
1391;DHT22;690;51.454;7.194;2022-10-16T14:14:27;22.40;99.90
1391;DHT22;690;51.454;7.194;2022-10-16T14:17:03;22.40;99.90
1391;DHT22;690;51.454;7.194;2022-10-16T14:19:30;22.50;99.90
1391;DHT22;690;51.454;7.194;2022-10-16T14:21:58;22.50;99.90
1391;DHT22;690;51.454;7.194;2022-10-16T14:24:31;22.50;99.90
1391;DHT22;690;51.454;7.194;2022-10-16T14:27:00;22.60;99.90
1391;DHT22;690;51.454;7.194;2022-10-16T14:29:28;22.50;99.90
1391;DHT22;690;51.454;7.194;2022-10-16T14:31:58;22.50;99.90
1391;DHT22;690;51.454;7.194;2022-10-16T14:34:29;22.40;99.90
1391;DHT22;690;51.454;7.194;2022-10-16T14:37:00;22.30;99.90
1391;DHT22;690;51.454;7.194;2022-10-16T14:39:33;22.20;99.90
1391;DHT22;690;51.454;7.194;2022-10-16T14:42:00;22.10;99.90
1391;DHT22;690;51.454;7.194;2022-10-16T14:44:29;22.00;99.90
1391;DHT22;690;51.454;7.194;2022-10-16T14:46:57;21.90;99.90
1391;DHT22;690;51.454;7.194;2022-10-16T14:49:27;21.80;99.90
1391;DHT22;690;51.454;7.194;2022-10-16T14:51:53;21.70;99.90
1391;DHT22;690;51.454;7.194;2022-10-16T14:54:21;21.70;99.90
1391;DHT22;690;51.454;7.194;2022-10-16T14:56:50;21.70;99.90
1391;DHT22;690;51.454;7.194;2022-10-16T14:59:20;21.70;99.90
1391;DHT22;690;51.454;7.194;2022-10-16T15:01:50;21.80;99.90
1391;DHT22;690;51.454;7.194;2022-10-16T15:04:17;21.80;99.90
1391;DHT22;690;51.454;7.194;2022-10-16T15:06:45;21.90;99.90
1391;DHT22;690;51.454;7.194;2022-10-16T15:09:12;21.80;99.90
1391;DHT22;690;51.454;7.194;2022-10-16T15:11:40;21.80;99.90
1391;DHT22;690;51.454;7.194;2022-10-16T15:14:10;21.80;99.90
1391;DHT22;690;51.454;7.194;2022-10-16T15:16:38;21.70;99.90
1391;DHT22;690;51.454;7.194;2022-10-16T15:19:04;21.70;99.90
1391;DHT22;690;51.454;7.194;2022-10-16T15:21:32;21.70;99.90
1391;DHT22;690;51.454;7.194;2022-10-16T15:24:00;21.60;99.90
1391;DHT22;690;51.454;7.194;2022-10-16T15:26:29;21.60;99.90
1391;DHT22;690;51.454;7.194;2022-10-16T15:28:57;21.50;99.90
1391;DHT22;690;51.454;7.194;2022-10-16T15:31:24;21.40;99.90
1391;DHT22;690;51.454;7.194;2022-10-16T15:33:51;21.30;99.90
1391;DHT22;690;51.454;7.194;2022-10-16T15:36:25;21.30;99.90
1391;DHT22;690;51.454;7.194;2022-10-16T15:38:52;21.20;99.90
1391;DHT22;690;51.454;7.194;2022-10-16T15:41:22;21.20;99.90
1391;DHT22;690;51.454;7.194;2022-10-16T15:43:49;21.10;99.90
1391;DHT22;690;51.454;7.194;2022-10-16T15:46:18;21.10;99.90
1391;DHT22;690;51.454;7.194;2022-10-16T15:48:46;21.00;99.90
1391;DHT22;690;51.454;7.194;2022-10-16T15:51:13;21.00;99.90
1391;DHT22;690;51.454;7.194;2022-10-16T15:53:40;20.90;99.90
1391;DHT22;690;51.454;7.194;2022-10-16T15:56:09;20.80;99.90
1391;DHT22;690;51.454;7.194;2022-10-16T15:58:38;20.70;99.90
1391;DHT22;690;51.454;7.194;2022-10-16T16:01:05;20.70;99.90
1391;DHT22;690;51.454;7.194;2022-10-16T16:03:33;20.60;99.90
1391;DHT22;690;51.454;7.194;2022-10-16T16:06:04;20.50;99.90
1391;DHT22;690;51.454;7.194;2022-10-16T16:08:32;20.40;99.90
1391;DHT22;690;51.454;7.194;2022-10-16T16:10:59;20.40;99.90
1391;DHT22;690;51.454;7.194;2022-10-16T16:13:26;20.30;99.90
1391;DHT22;690;51.454;7.194;2022-10-16T16:15:55;20.30;99.90
1391;DHT22;690;51.454;7.194;2022-10-16T16:18:21;20.30;99.90
1391;DHT22;690;51.454;7.194;2022-10-16T16:20:49;20.20;99.90
1391;DHT22;690;51.454;7.194;2022-10-16T16:23:16;20.20;1.00
1391;DHT22;690;51.454;7.194;2022-10-16T16:25:43;20.10;1.00
1391;DHT22;690;51.454;7.194;2022-10-16T16:28:10;20.10;1.00
1391;DHT22;690;51.454;7.194;2022-10-16T16:30:39;20.00;1.00
1391;DHT22;690;51.454;7.194;2022-10-16T16:33:08;20.00;1.00
1391;DHT22;690;51.454;7.194;2022-10-16T16:35:35;19.80;1.00
1391;DHT22;690;51.454;7.194;2022-10-16T16:38:02;19.80;1.00
1391;DHT22;690;51.454;7.194;2022-10-16T16:40:28;19.70;1.00
1391;DHT22;690;51.454;7.194;2022-10-16T16:42:56;19.60;1.00
1391;DHT22;690;51.454;7.194;2022-10-16T16:45:22;19.60;1.00
1391;DHT22;690;51.454;7.194;2022-10-16T16:47:51;19.50;1.00